Time;durP1;ratioP1;P1;durP2;ratioP2;P2;SDS_P1;SDS_P2;PMS_P1;PMS_P2;Temp;Humidity;BMP_temperature;BMP_pressure;BME280_temperature;BME280_humidity;BME280_pressure;Samples;Min_cycle;Max_cycle;Signal;HPM_P1;HPM_P2
2022/08/17 00:00:18;;;;;;;7.15;5.20;;;22.10;53.80;;;24.95;39.44;97012.09;5026128;28;20069;-42
2022/08/17 00:03:14;;;;;;;5.65;5.03;;;22.10;53.60;;;24.96;39.11;97005.56;5025709;28;20360;-42
2022/08/17 00:05:59;;;;;;;6.05;4.88;;;22.10;53.60;;;24.94;39.63;97015.09;5025710;28;20239;-42
2022/08/17 00:08:31;;;;;;;5.15;4.65;;;22.10;54.50;;;24.92;39.41;97011.81;5024843;28;20367;-42
2022/08/17 00:11:00;;;;;;;8.48;6.40;;;22.10;54.30;;;24.88;39.60;97016.16;5026602;28;20340;-42
2022/08/17 00:13:45;;;;;;;6.13;5.43;;;22.00;54.40;;;24.85;39.55;97014.78;5025835;28;20049;-42
2022/08/17 00:16:23;;;;;;;8.15;6.07;;;22.00;54.50;;;24.83;39.83;97019.69;5026531;28;20362;-42
2022/08/17 00:19:14;;;;;;;6.50;5.85;;;21.90;55.00;;;24.80;39.85;97011.25;5026077;28;20052;-42
2022/08/17 00:21:46;;;;;;;5.85;5.35;;;21.90;55.10;;;24.73;40.21;97006.06;5027179;28;20049;-42
2022/08/17 00:24:33;;;;;;;6.13;5.53;;;21.80;55.60;;;24.71;40.21;96998.16;5024597;28;20060;-41
2022/08/17 00:27:02;;;;;;;6.75;5.78;;;21.80;55.60;;;24.66;40.08;97006.31;5026342;28;20054;-41
2022/08/17 00:29:30;;;;;;;8.18;6.10;;;21.80;55.70;;;24.61;40.13;97009.00;5025900;28;20255;-42
2022/08/17 00:32:00;;;;;;;7.50;5.63;;;21.70;55.60;;;24.57;40.15;97005.19;5025235;28;20083;-42
2022/08/17 00:34:47;;;;;;;7.03;6.28;;;21.70;55.60;;;24.58;40.06;96995.13;5025311;28;20347;-41
2022/08/17 00:37:15;;;;;;;9.05;6.03;;;21.70;55.60;;;24.54;40.13;96997.53;5024988;28;20058;-41
2022/08/17 00:39:43;;;;;;;6.32;5.65;;;21.70;55.60;;;24.51;40.21;96998.09;5026430;28;20558;-41
2022/08/17 00:42:15;;;;;;;10.25;6.65;;;21.70;55.80;;;24.47;40.61;96995.06;5029989;28;20359;-42
2022/08/17 00:44:43;;;;;;;8.32;6.53;;;21.60;56.10;;;24.45;40.83;96993.69;5028411;28;20053;-42
2022/08/17 00:47:11;;;;;;;8.85;5.95;;;21.60;56.50;;;24.41;40.87;96992.56;5029869;28;20053;-41
2022/08/17 00:49:39;;;;;;;7.00;6.40;;;21.60;56.60;;;24.37;40.95;96995.84;5029420;28;20399;-42
2022/08/17 00:52:15;;;;;;;6.80;6.20;;;21.50;56.90;;;24.35;40.85;96987.13;5029148;28;20054;-41
2022/08/17 00:54:48;;;;;;;6.85;6.13;;;21.50;57.00;;;24.32;40.88;96989.56;5029026;28;20263;-41
2022/08/17 00:57:28;;;;;;;9.23;7.35;;;21.40;57.50;;;24.28;41.06;96991.16;5028475;28;20057;-41
2022/08/17 01:00:28;;;;;;;8.88;7.28;;;21.30;57.70;;;24.21;41.12;96988.69;5027434;28;20351;-41
2022/08/17 01:03:07;;;;;;;9.30;7.85;;;21.30;58.50;;;24.19;41.57;96982.69;5028209;28;20351;-42
2022/08/17 01:05:39;;;;;;;7.78;6.68;;;21.30;58.70;;;24.16;41.56;96985.94;5028554;28;20053;-42
2022/08/17 01:08:15;;;;;;;8.10;6.53;;;21.30;58.10;;;24.14;41.73;96990.84;5028523;28;20064;-42
2022/08/17 01:10:49;;;;;;;9.27;8.20;;;21.20;58.60;;;24.11;41.55;96989.44;5027872;28;20054;-41
2022/08/17 01:13:39;;;;;;;7.63;6.82;;;21.20;58.10;;;24.11;41.75;96983.19;5027494;28;20047;-41
2022/08/17 01:16:25;;;;;;;8.65;7.88;;;21.20;58.50;;;24.09;41.60;96983.44;5028926;28;20083;-41
2022/08/17 01:19:01;;;;;;;9.30;7.78;;;21.20;58.70;;;24.07;41.81;96982.09;5026361;28;20057;-41
2022/08/17 01:21:47;;;;;;;8.60;7.80;;;21.10;58.90;;;24.03;41.76;96984.50;5028016;28;20107;-41
2022/08/17 01:24:16;;;;;;;8.20;7.38;;;21.10;58.60;;;23.97;41.98;96982.84;5029882;28;20324;-42
2022/08/17 01:26:45;;;;;;;10.27;8.23;;;21.10;59.10;;;23.92;42.02;96985.53;5026928;28;20049;-44
2022/08/17 01:29:16;;;;;;;8.77;7.97;;;21.00;58.60;;;23.90;42.22;96991.22;5028927;28;20057;-41
2022/08/17 01:31:52;;;;;;;7.82;7.03;;;21.00;58.80;;;23.89;42.15;96983.38;5029217;28;20328;-42
2022/08/17 01:34:20;;;;;;;8.65;7.85;;;21.00;58.80;;;23.86;42.10;96981.16;5026497;28;20248;-42
2022/08/17 01:36:49;;;;;;;8.38;7.50;;;21.00;58.80;;;23.83;42.03;96987.13;5028100;28;20057;-43
2022/08/17 01:39:39;;;;;;;9.68;7.65;;;20.90;58.80;;;23.80;42.24;96985.75;5010562;28;20042;-42
2022/08/17 01:42:56;;;;;;;7.65;6.95;;;20.90;59.70;;;23.77;42.25;96992.50;5008301;28;20255;-42
2022/08/17 01:45:30;;;;;;;9.95;6.85;;;20.90;59.50;;;23.77;42.18;96997.94;4977989;28;20066;-41
2022/08/17 01:47:59;;;;;;;9.73;6.68;;;20.80;59.30;;;23.73;42.80;96994.09;5008585;28;20052;-42
2022/08/17 01:50:34;;;;;;;7.10;6.40;;;20.80;59.80;;;23.71;42.63;96990.00;5007227;28;20074;-41
2022/08/17 01:53:06;;;;;;;6.85;6.25;;;20.80;59.70;;;23.69;42.46;96984.84;5007724;28;20057;-41
2022/08/17 01:55:52;;;;;;;6.72;6.03;;;20.80;59.30;;;23.72;42.26;96989.72;5009188;28;20068;-41
2022/08/17 01:58:20;;;;;;;9.43;6.28;;;20.80;59.60;;;23.68;42.72;96985.91;5007127;28;20056;-41
2022/08/17 02:00:51;;;;;;;7.13;6.40;;;20.80;59.70;;;23.63;42.97;96990.47;5007085;28;20064;-42
2022/08/17 02:03:29;;;;;;;7.43;6.32;;;20.70;60.20;;;23.62;42.77;96988.84;5007774;28;20045;-41
2022/08/17 02:05:57;;;;;;;9.43;6.05;;;20.70;59.80;;;23.61;42.82;96992.66;5008634;28;20328;-41
2022/08/17 02:08:27;;;;;;;8.32;6.85;;;20.70;59.70;;;23.57;42.87;97008.63;4996139;28;20706;-41
2022/08/17 02:11:13;;;;;;;7.07;6.38;;;20.70;59.80;;;23.55;42.86;97008.94;4987814;28;20221;-42
2022/08/17 02:13:43;;;;;;;10.13;6.95;;;20.70;60.30;;;23.56;43.11;97009.75;4988704;28;20054;-41
2022/08/17 02:16:12;;;;;;;6.95;5.97;;;20.70;60.20;;;23.56;42.81;97004.31;4989660;28;20357;-41
2022/08/17 02:18:40;;;;;;;7.78;6.90;;;20.70;60.10;;;23.57;42.91;97009.47;4988248;28;20072;-42
2022/08/17 02:21:09;;;;;;;9.00;6.40;;;20.70;60.30;;;23.57;43.51;97003.22;4987492;28;20065;-41
2022/08/17 02:23:44;;;;;;;9.23;7.32;;;20.70;60.70;;;23.57;43.25;96997.78;5019408;28;20078;-41
2022/08/17 02:26:12;;;;;;;7.90;6.40;;;20.70;60.90;;;23.56;43.38;96998.88;4988696;28;20050;-42
2022/08/17 02:28:53;;;;;;;10.27;7.68;;;20.70;61.10;;;23.57;43.60;96998.63;4987146;28;20049;-41
2022/08/17 02:31:21;;;;;;;7.32;6.55;;;20.70;61.20;;;23.54;43.55;96990.97;4988942;28;20409;-41
2022/08/17 02:33:49;;;;;;;8.23;6.97;;;20.70;61.40;;;23.56;43.52;96993.44;4987137;28;20362;-41
2022/08/17 02:36:32;;;;;;;9.88;6.72;;;20.70;61.50;;;23.60;43.36;96994.56;4988540;28;20340;-42
2022/08/17 02:39:07;;;;;;;8.40;7.57;;;20.70;61.20;;;23.61;43.37;96993.44;4988104;28;20084;-41
2022/08/17 02:41:36;;;;;;;7.20;6.50;;;20.70;61.20;;;23.60;43.24;96994.56;4988402;28;20356;-42
2022/08/17 02:44:06;;;;;;;7.80;7.10;;;20.70;60.70;;;23.59;43.12;96993.75;5003867;28;20054;-42
2022/08/17 02:46:34;;;;;;;8.95;6.95;;;20.80;60.50;;;23.61;43.25;96993.44;4988046;28;20065;-42
2022/08/17 02:49:03;;;;;;;8.18;6.93;;;20.70;60.50;;;23.59;43.29;96984.75;4987206;28;20072;-42
2022/08/17 02:51:31;;;;;;;8.43;7.32;;;20.70;60.50;;;23.61;43.28;96987.22;4988534;28;20494;-41
2022/08/17 02:53:59;;;;;;;8.07;7.28;;;20.80;60.70;;;23.61;43.48;96982.59;4988842;28;20371;-42
2022/08/17 02:56:47;;;;;;;7.63;6.82;;;20.70;60.90;;;23.67;43.24;96983.44;4987327;28;20050;-42
2022/08/17 02:59:14;;;;;;;8.43;7.53;;;20.80;60.70;;;23.65;43.67;96985.59;4987684;28;20049;-43
2022/08/17 03:01:42;;;;;;;8.05;6.45;;;20.80;61.00;;;23.61;43.64;96982.59;4987656;28;20038;-42
2022/08/17 03:04:10;;;;;;;9.05;7.78;;;20.70;61.40;;;23.59;43.88;96987.47;4987809;28;20344;-41
2022/08/17 03:06:38;;;;;;;8.20;6.57;;;20.70;61.80;;;23.58;43.89;96988.56;4985716;28;20050;-41
2022/08/17 03:09:06;;;;;;;9.98;7.15;;;20.70;61.70;;;23.58;43.82;96988.56;4986404;28;20072;-42
2022/08/17 03:11:34;;;;;;;7.07;5.57;;;20.70;61.80;;;23.58;43.63;96992.09;4986269;28;20054;-41
2022/08/17 03:14:02;;;;;;;8.38;6.78;;;20.70;61.50;;;23.61;43.55;96995.34;4987230;28;20058;-41
2022/08/17 03:16:30;;;;;;;6.72;6.05;;;20.70;61.20;;;23.63;43.32;96994.00;4987938;28;20080;-41
2022/08/17 03:18:57;;;;;;;6.47;5.88;;;20.70;60.90;;;23.63;43.07;97001.34;4986220;28;20260;-41
2022/08/17 03:21:25;;;;;;;7.18;5.80;;;20.80;60.60;;;23.65;43.21;97004.63;4987052;28;20076;-41
2022/08/17 03:23:53;;;;;;;5.93;5.32;;;20.80;60.50;;;23.63;43.21;97007.59;4987743;28;20068;-41
2022/08/17 03:26:21;;;;;;;7.43;5.05;;;20.80;60.10;;;23.64;43.10;97011.97;4988623;28;20078;-41
2022/08/17 03:28:49;;;;;;;5.82;5.32;;;20.80;60.00;;;23.67;43.22;97010.63;4986646;28;20082;-42
2022/08/17 03:31:17;;;;;;;8.32;6.00;;;20.80;60.00;;;23.63;43.41;97017.66;4987277;28;20218;-41
2022/08/17 03:33:45;;;;;;;6.68;5.88;;;20.80;60.10;;;23.62;43.48;97019.56;4987229;28;20058;-41
2022/08/17 03:36:13;;;;;;;8.30;6.32;;;20.80;60.50;;;23.63;43.59;97023.09;4987702;28;20061;-41
2022/08/17 03:38:41;;;;;;;7.05;5.72;;;20.80;61.00;;;23.65;43.59;97020.94;4987478;28;20054;-41
2022/08/17 03:41:12;;;;;;;6.22;5.28;;;20.80;60.50;;;23.67;43.47;97010.63;4987184;28;20116;-41
2022/08/17 03:43:40;;;;;;;6.70;5.30;;;20.90;60.40;;;23.68;43.17;97017.69;4987121;28;20332;-42
2022/08/17 03:57:29;;;;;;;7.90;5.00;;;20.70;59.70;;;23.55;42.88;97032.53;4987771;28;20062;-41
2022/08/17 03:59:58;;;;;;;5.82;5.28;;;20.80;59.20;;;23.56;42.60;97043.16;4986145;28;20240;-42
2022/08/17 04:02:32;;;;;;;5.55;4.90;;;20.90;58.80;;;23.58;42.46;97045.59;4987583;28;20319;-41
2022/08/17 04:05:00;;;;;;;7.20;5.40;;;21.00;57.70;;;23.62;42.23;97052.16;4987407;28;20054;-42
2022/08/17 04:07:30;;;;;;;6.10;4.82;;;21.00;57.10;;;23.65;41.95;97054.38;4986312;28;20260;-41
2022/08/17 04:09:58;;;;;;;6.18;5.60;;;21.10;56.90;;;23.66;42.06;97047.03;4986598;28;20058;-42
2022/08/17 04:12:29;;;;;;;7.15;5.38;;;21.00;57.70;;;23.54;42.75;97045.31;4987126;28;20050;-42
2022/08/17 04:14:58;;;;;;;7.13;6.40;;;20.90;58.60;;;23.50;42.92;97046.91;4987305;28;20058;-41
2022/08/17 04:17:28;;;;;;;7.90;6.05;;;20.70;59.60;;;23.44;43.25;97038.94;4990847;28;20056;-42
2022/08/17 04:19:56;;;;;;;7.85;5.88;;;20.60;60.20;;;23.44;43.57;97036.25;4990118;28;20072;-41
2022/08/17 04:22:24;;;;;;;7.20;5.95;;;20.60;60.40;;;23.46;43.17;97045.78;4989587;28;20057;-42
2022/08/17 04:25:16;;;;;;;8.52;5.85;;;20.60;60.40;;;23.50;43.09;97055.06;4989640;28;20068;-41
2022/08/17 04:27:43;;;;;;;8.55;5.93;;;20.60;60.60;;;23.51;43.03;97053.16;4989598;28;20065;-42
2022/08/17 04:30:12;;;;;;;8.13;6.28;;;20.60;60.40;;;23.50;43.28;97060.50;4990310;28;20058;-42
2022/08/17 04:33:18;;;;;;;7.55;5.82;;;20.60;60.50;;;23.53;43.20;97054.53;4990049;28;20058;-42
2022/08/17 04:35:50;;;;;;;6.82;5.97;;;20.60;60.60;;;23.57;42.96;97054.81;4990131;28;20260;-42
2022/08/17 04:38:23;;;;;;;8.10;6.18;;;20.60;60.50;;;23.54;43.20;97061.59;4990754;28;20056;-42
2022/08/17 04:43:39;;;;;;;6.95;6.28;;;20.60;60.60;;;23.42;43.51;97079.97;4990481;28;20280;-42
2022/08/17 04:46:19;;;;;;;7.03;5.82;;;20.60;60.80;;;23.38;43.50;97082.38;4990757;28;20382;-41
2022/08/17 04:48:51;;;;;;;6.18;5.63;;;20.60;60.60;;;23.43;43.28;97086.22;4990342;28;20076;-41
2022/08/17 04:51:32;;;;;;;9.20;5.57;;;20.50;60.40;;;23.45;43.45;97092.22;4989130;28;20068;-41
2022/08/17 04:54:06;;;;;;;6.32;5.72;;;20.60;60.50;;;23.51;43.09;97093.91;4990117;28;20064;-41
2022/08/17 04:56:34;;;;;;;6.85;5.88;;;20.60;60.40;;;23.52;43.43;97084.69;4990464;28;20383;-42
2022/08/17 04:59:07;;;;;;;10.25;6.60;;;20.70;60.30;;;23.55;43.50;97082.28;4990712;28;20106;-41
2022/08/17 05:01:39;;;;;;;6.57;5.95;;;20.80;60.50;;;23.63;43.49;97085.56;4989254;28;20054;-41
2022/08/17 05:04:12;;;;;;;7.35;6.60;;;20.80;60.60;;;23.68;43.30;97091.06;4991105;28;20076;-41
2022/08/17 05:07:00;;;;;;;7.18;5.82;;;20.80;60.30;;;23.79;42.98;97090.09;4988251;28;20058;-42
2022/08/17 05:09:27;;;;;;;7.38;6.68;;;20.90;60.30;;;23.84;43.21;97084.69;4989287;28;20376;-43
2022/08/17 05:12:02;;;;;;;6.97;6.25;;;21.00;60.00;;;23.88;43.15;97082.28;4989203;28;20382;-42
2022/08/17 05:14:30;;;;;;;9.13;5.97;;;21.10;59.90;;;23.97;43.07;97083.44;4990748;28;20064;-44
2022/08/17 05:17:01;;;;;;;6.45;5.53;;;21.20;59.50;;;24.04;42.70;97086.75;4991040;28;20258;-41
2022/08/17 05:19:37;;;;;;;6.88;5.68;;;21.30;59.10;;;24.12;42.69;97080.81;4989555;28;20054;-41
2022/08/17 05:22:05;;;;;;;6.28;5.60;;;21.40;59.00;;;24.20;42.83;97090.38;4988805;28;20329;-42
2022/08/17 05:24:34;;;;;;;7.05;5.28;;;21.50;58.70;;;24.28;42.35;97089.06;4988491;28;20058;-42
2022/08/17 05:27:17;;;;;;;7.32;5.22;;;21.60;58.30;;;24.37;42.35;97095.66;4988539;28;20050;-42
2022/08/17 05:29:45;;;;;;;6.25;5.65;;;21.60;58.20;;;24.42;42.00;97087.50;4989439;28;20051;-42
2022/08/17 05:32:14;;;;;;;8.23;6.80;;;21.70;58.00;;;24.46;43.33;97085.91;4989755;28;20374;-42
2022/08/17 05:35:02;;;;;;;8.23;6.97;;;21.80;59.60;;;24.52;43.88;97078.63;4989398;28;20070;-43
2022/08/17 05:37:30;;;;;;;8.70;6.57;;;21.80;61.10;;;24.54;44.06;97082.72;4989624;28;20112;-41
2022/08/17 05:39:58;;;;;;;7.38;6.63;;;21.80;61.40;;;24.56;43.69;97082.44;4989499;28;20072;-45
2022/08/17 05:42:26;;;;;;;7.75;6.93;;;21.80;61.20;;;24.59;43.88;97075.69;5007019;28;20538;-42
2022/08/17 05:44:56;;;;;;;7.05;6.35;;;21.80;61.50;;;24.62;43.81;97077.84;5023021;28;20061;-44
2022/08/17 05:47:26;;;;;;;8.48;6.65;;;21.80;61.60;;;24.63;43.75;97080.31;5009937;28;20348;-43
2022/08/17 05:49:54;;;;;;;9.32;6.60;;;21.80;61.10;;;24.64;43.67;97081.97;5007881;28;20392;-43
2022/08/17 05:52:48;;;;;;;9.02;6.63;;;21.80;60.90;;;24.68;43.59;97093.09;5009027;28;20064;-42
2022/08/17 05:55:45;;;;;;;7.55;6.65;;;21.90;61.40;;;24.70;43.76;97096.41;5009098;28;20048;-43
2022/08/17 05:58:37;;;;;;;8.30;6.13;;;21.90;61.50;;;24.70;43.36;97104.56;5008165;28;20081;-42
2022/08/17 06:01:23;;;;;;;8.35;6.40;;;21.90;60.80;;;24.71;43.01;97098.84;5007308;28;20060;-43
2022/08/17 06:04:30;;;;;;;8.35;6.60;;;21.90;59.80;;;24.69;42.90;97098.28;5007763;28;20083;-42
2022/08/17 06:07:37;;;;;;;9.45;6.10;;;21.90;59.60;;;24.70;42.76;97108.09;4985473;28;20058;-42
2022/08/17 06:10:45;;;;;;;6.63;5.97;;;21.90;59.30;;;24.72;42.74;97110.56;5006403;28;20056;-43
2022/08/17 06:13:35;;;;;;;6.75;5.72;;;21.90;59.20;;;24.71;42.70;97108.91;5004888;28;20149;-45
2022/08/17 06:16:23;;;;;;;6.43;5.82;;;22.00;59.00;;;24.72;42.90;97113.28;5009406;28;20046;-43
2022/08/17 06:19:30;;;;;;;6.70;6.10;;;22.00;59.40;;;24.75;42.79;97121.72;5006751;28;20663;-43
2022/08/17 06:22:01;;;;;;;7.25;6.55;;;22.00;59.10;;;24.76;42.78;97117.13;5006651;28;20201;-42
2022/08/17 06:24:41;;;;;;;8.20;6.30;;;22.00;59.30;;;24.79;42.93;97119.28;5005853;28;20532;-43
2022/08/17 06:27:30;;;;;;;6.93;6.20;;;22.00;59.60;;;24.83;43.17;97120.41;5006683;28;20336;-43
2022/08/17 06:30:19;;;;;;;7.60;6.88;;;22.10;59.90;;;24.88;43.34;97123.16;5008713;28;20042;-43
2022/08/17 06:32:50;;;;;;;9.13;6.28;;;22.20;60.60;;;24.91;43.76;97130.78;5007830;28;20045;-44
2022/08/17 06:35:36;;;;;;;9.88;7.78;;;22.20;60.50;;;24.96;43.35;97130.78;5006404;28;20050;-44
2022/08/17 06:38:40;;;;;;;9.18;6.95;;;22.30;60.80;;;25.05;43.15;97125.66;5006952;28;20054;-44
2022/08/17 06:41:25;;;;;;;8.90;7.10;;;22.40;59.80;;;25.15;42.93;97133.88;4987528;28;20057;-42
2022/08/17 06:44:33;;;;;;;8.32;6.50;;;22.50;59.10;;;25.25;42.66;97138.56;4991157;28;20060;-42
2022/08/17 06:47:35;;;;;;;7.93;6.25;;;22.60;58.80;;;25.46;42.29;97146.78;4995593;28;20057;-41
2022/08/17 06:50:27;;;;;;;7.05;6.35;;;22.80;58.30;;;25.57;41.97;97153.91;5006478;28;20042;-42
2022/08/17 06:53:19;;;;;;;6.82;6.32;;;22.90;56.90;;;25.67;41.92;97143.00;5008186;28;20350;-43
2022/08/17 06:56:07;;;;;;;6.53;5.80;;;23.10;56.60;;;25.71;41.64;97130.47;5006306;28;20050;-42
2022/08/17 06:58:38;;;;;;;7.63;5.65;;;23.10;56.40;;;25.79;41.54;97131.84;5007634;28;20056;-46
2022/08/17 07:01:16;;;;;;;7.85;5.75;;;23.20;56.60;;;25.84;41.92;97120.94;5005451;28;20052;-44
2022/08/17 07:03:53;;;;;;;5.88;5.38;;;23.20;56.50;;;25.87;41.51;97120.38;5006277;28;20329;-46
2022/08/17 07:06:28;;;;;;;9.95;6.40;;;23.30;56.80;;;25.93;41.50;97122.03;5008293;28;20401;-42
2022/08/17 07:09:13;;;;;;;7.00;6.22;;;23.40;57.00;;;26.04;41.50;97122.06;5006933;28;20244;-46
2022/08/17 07:11:57;;;;;;;7.13;6.43;;;23.40;56.20;;;26.09;42.06;97111.97;5005937;28;20393;-43
2022/08/17 07:15:06;;;;;;;6.70;5.97;;;23.50;56.80;;;26.20;41.36;97126.41;5006042;28;20050;-45
2022/08/17 07:17:34;;;;;;;7.60;5.88;;;23.60;56.50;;;26.31;41.05;97138.13;5007365;28;20065;-44
2022/08/17 07:20:22;;;;;;;7.85;7.13;;;23.80;56.10;;;26.39;40.80;97129.38;5007164;28;20283;-44
2022/08/17 07:23:16;;;;;;;8.52;6.72;;;23.80;55.80;;;26.44;40.79;97126.63;5005672;28;20046;-43
2022/08/17 07:25:44;;;;;;;6.65;5.95;;;23.90;55.50;;;26.50;40.56;97127.44;5011004;28;20377;-46
2022/08/17 07:28:11;;;;;;;6.88;6.28;;;24.00;55.40;;;26.55;40.99;97127.44;5026583;28;20065;-42
2022/08/17 07:30:59;;;;;;;6.95;5.57;;;24.00;55.40;;;26.60;40.78;97122.00;5026026;28;20053;-42
2022/08/17 07:33:30;;;;;;;7.28;6.57;;;24.10;54.30;;;26.62;40.59;97129.88;5023738;28;20347;-43
2022/08/17 07:35:59;;;;;;;6.75;6.10;;;24.10;54.80;;;26.67;40.49;97132.59;5026374;28;20049;-43
2022/08/17 07:38:30;;;;;;;7.03;6.32;;;24.10;54.60;;;26.69;40.33;97131.22;5025929;28;20057;-44
2022/08/17 07:41:07;;;;;;;6.80;6.20;;;24.10;54.40;;;26.78;40.58;97138.88;5025438;28;20050;-46
2022/08/17 07:43:46;;;;;;;7.82;5.88;;;24.30;54.30;;;26.89;40.68;97140.47;5026183;28;20049;-45
2022/08/17 07:49:36;;;;;;;7.20;6.50;;;24.50;53.80;;;27.10;40.39;97147.47;5027434;28;20053;-43
2022/08/17 07:52:24;;;;;;;9.02;6.75;;;24.60;53.90;;;27.14;39.67;97144.97;5030836;28;20057;-43
2022/08/17 07:55:40;;;;;;;7.05;6.25;;;24.60;53.70;;;27.19;39.50;97153.16;5030717;28;20053;-45
2022/08/17 07:58:17;;;;;;;7.55;5.63;;;24.60;52.80;;;27.20;39.30;97154.81;5028547;28;20065;-43
2022/08/17 08:01:03;;;;;;;6.65;6.05;;;24.60;51.90;;;27.15;38.40;97157.56;5018907;28;20067;-46
2022/08/17 08:03:32;;;;;;;7.53;6.57;;;24.60;52.10;;;27.17;38.49;97158.09;5016607;28;20057;-41
2022/08/17 08:06:02;;;;;;;6.53;5.93;;;24.50;52.40;;;27.18;38.16;97161.63;5012464;28;20048;-43
2022/08/17 08:08:41;;;;;;;7.25;6.57;;;24.60;51.60;;;27.20;37.96;97168.47;5014014;28;20050;-43
2022/08/17 08:11:16;;;;;;;6.43;5.70;;;24.60;50.70;;;27.15;38.58;97165.75;5014300;28;20382;-45
2022/08/17 08:13:44;;;;;;;5.90;5.32;;;24.50;51.60;;;27.23;38.05;97169.81;5017781;28;20080;-43
2022/08/17 08:16:12;;;;;;;6.78;6.18;;;24.70;51.40;;;27.13;37.73;97170.69;5018923;28;20052;-42
2022/08/17 08:18:47;;;;;;;7.68;5.32;;;24.50;50.90;;;27.16;37.91;97172.88;5018447;28;20056;-43
2022/08/17 08:21:54;;;;;;;6.70;5.75;;;24.50;50.90;;;27.19;38.22;97169.56;5028491;28;20053;-44
2022/08/17 08:24:58;;;;;;;6.57;5.65;;;24.50;51.40;;;27.21;38.09;97170.09;5028850;28;20371;-44
2022/08/17 08:27:47;;;;;;;5.93;5.43;;;24.70;50.80;;;27.24;37.75;97175.03;5029839;28;20364;-45
2022/08/17 08:30:21;;;;;;;6.15;5.25;;;24.70;50.80;;;27.32;37.59;97173.63;5029174;28;20063;-42
2022/08/17 08:33:43;;;;;;;6.00;5.47;;;24.70;50.60;;;27.35;37.87;97181.25;5029360;28;20071;-43
2022/08/17 08:37:08;;;;;;;6.13;5.63;;;24.80;50.30;;;27.33;38.19;97194.38;5028580;28;20046;-44
2022/08/17 08:40:09;;;;;;;6.35;5.70;;;24.70;50.50;;;27.28;38.53;97194.44;5028883;28;20045;-44
2022/08/17 08:43:07;;;;;;;6.78;6.18;;;24.70;52.50;;;27.28;38.62;97206.16;5029335;28;20053;-42
2022/08/17 08:46:09;;;;;;;8.55;6.22;;;24.70;51.90;;;27.28;38.30;97211.63;5030393;28;20049;-42
2022/08/17 08:48:55;;;;;;;7.18;6.35;;;24.70;51.70;;;27.27;38.25;97203.72;5013237;28;20061;-44
2022/08/17 08:51:46;;;;;;;6.70;6.15;;;24.60;51.90;;;27.22;38.42;97199.06;5029732;28;20371;-45
2022/08/17 08:54:25;;;;;;;7.80;6.53;;;24.50;52.20;;;27.23;38.61;97195.22;5029729;28;20053;-44
2022/08/17 08:57:20;;;;;;;6.82;6.20;;;24.60;52.50;;;27.25;38.44;97190.31;5029294;28;20051;-43
2022/08/17 09:00:16;;;;;;;7.15;6.45;;;24.60;52.40;;;27.33;38.71;97193.56;5028441;28;20059;-44
2022/08/17 09:03:20;;;;;;;6.85;6.20;;;24.60;51.90;;;27.33;38.77;97194.38;5028668;28;20053;-43
2022/08/17 09:06:38;;;;;;;7.38;6.78;;;24.70;52.30;;;27.40;38.47;97191.38;5029586;28;20367;-42
2022/08/17 09:09:33;;;;;;;8.52;6.28;;;24.70;52.00;;;27.40;38.33;97194.09;5029290;28;20057;-42
2022/08/17 09:12:38;;;;;;;7.28;5.95;;;24.70;52.50;;;27.44;38.90;97211.56;5028318;28;20048;-42
2022/08/17 09:15:20;;;;;;;7.57;5.95;;;24.70;52.30;;;27.46;39.12;97220.31;5027066;28;20067;-43
2022/08/17 09:18:15;;;;;;;7.45;6.57;;;24.70;53.10;;;27.44;38.87;97225.22;5027616;28;20045;-45
2022/08/17 09:21:31;;;;;;;7.65;6.63;;;24.70;53.60;;;27.39;38.96;97227.97;5027998;28;20060;-44
2022/08/17 09:24:11;;;;;;;11.65;9.13;;;24.70;53.40;;;27.35;39.74;97222.25;5028085;28;20041;-44
2022/08/17 09:26:47;;;;;;;9.00;6.68;;;24.60;54.10;;;27.36;39.61;97225.81;5027910;28;20082;-43
2022/08/17 09:29:17;;;;;;;7.32;6.70;;;24.70;53.70;;;27.40;39.20;97222.25;5026967;28;20071;-42
2022/08/17 09:32:02;;;;;;;6.80;6.10;;;24.70;53.50;;;27.45;39.54;97224.13;5027796;28;20053;-42
2022/08/17 09:34:50;;;;;;;6.65;6.05;;;24.80;53.30;;;27.43;39.54;97221.69;5028357;28;20057;-44
2022/08/17 09:37:36;;;;;;;8.70;5.78;;;24.80;53.80;;;27.47;39.46;97219.19;5027096;28;20057;-44
2022/08/17 09:40:14;;;;;;;6.53;5.93;;;24.80;53.00;;;27.47;39.25;97220.03;5029284;28;20053;-45
2022/08/17 09:43:18;;;;;;;7.22;5.45;;;24.80;52.90;;;27.49;38.97;97220.56;5029594;28;20255;-46
2022/08/17 09:45:57;;;;;;;5.22;4.75;;;24.90;52.90;;;27.48;39.02;97216.19;5021315;28;20065;-42
2022/08/17 09:49:04;;;;;;;6.07;5.47;;;24.80;53.00;;;27.47;38.91;97219.19;5026440;28;20071;-42
2022/08/17 09:51:35;;;;;;;7.70;6.28;;;24.80;53.00;;;27.46;39.59;97226.56;5027011;28;20258;-43
2022/08/17 09:54:26;;;;;;;6.47;5.20;;;24.80;53.80;;;27.41;39.46;97232.09;5028009;28;20049;-43
2022/08/17 09:57:45;;;;;;;6.20;4.90;;;24.80;53.60;;;27.35;39.98;97230.44;5026997;28;20061;-42
2022/08/17 10:00:30;;;;;;;6.20;5.47;;;24.70;55.30;;;27.30;39.96;97233.22;5026704;28;20049;-45
2022/08/17 10:03:49;;;;;;;5.78;5.15;;;24.60;55.00;;;27.19;40.21;97242.50;5027393;28;20037;-42
2022/08/17 10:06:23;;;;;;;5.75;5.28;;;24.50;55.70;;;27.18;40.62;97240.88;5027326;28;20713;-45
2022/08/17 10:09:13;;;;;;;5.10;4.70;;;24.40;56.10;;;27.13;40.07;97235.44;5026830;28;20049;-45
2022/08/17 10:12:15;;;;;;;5.88;5.25;;;24.30;56.20;;;27.00;41.45;97240.38;5025399;28;20318;-42
2022/08/17 10:14:59;;;;;;;6.40;5.80;;;24.10;58.70;;;26.92;42.39;97249.13;5029417;28;20057;-45
2022/08/17 10:17:58;;;;;;;9.25;5.80;;;23.90;60.20;;;26.78;42.73;97237.16;5026781;28;20063;-42
2022/08/17 10:20:33;;;;;;;8.00;5.65;;;23.90;60.60;;;26.74;42.19;97238.81;5026326;28;20072;-42
2022/08/17 10:26:26;;;;;;;5.60;5.10;;;23.90;60.20;;;26.67;43.27;97250.00;4972345;28;20058;-43
2022/08/17 10:29:20;;;;;;;6.35;5.28;;;23.70;60.30;;;26.56;41.66;97246.44;5039315;28;20239;-43
2022/08/17 10:32:02;;;;;;;4.93;4.43;;;23.70;56.70;;;26.38;41.64;97247.78;5027418;28;20063;-42
2022/08/17 10:34:52;;;;;;;7.95;4.70;;;23.70;57.50;;;26.28;41.27;97251.34;5027279;28;20320;-43
2022/08/17 10:38:08;;;;;;;4.85;4.40;;;23.50;56.60;;;26.35;41.33;97240.16;5026966;28;20064;-45
2022/08/17 10:40:56;;;;;;;5.22;4.72;;;23.50;57.10;;;26.37;41.44;97242.63;5026080;28;20057;-45
2022/08/17 10:43:34;;;;;;;5.50;4.72;;;23.50;56.20;;;26.36;41.28;97244.53;5026922;28;20055;-45
2022/08/17 10:46:16;;;;;;;6.20;5.60;;;23.50;57.30;;;26.38;41.91;97250.53;5027638;28;20246;-42
2022/08/17 10:49:16;;;;;;;5.38;4.88;;;23.50;58.10;;;26.40;41.61;97267.44;5025789;28;20053;-43
2022/08/17 10:51:54;;;;;;;8.50;4.47;;;23.50;59.10;;;26.36;41.51;97285.44;5026628;28;20047;-43
2022/08/17 10:55:00;;;;;;;4.47;4.07;;;23.60;57.30;;;26.32;41.81;97304.28;5026127;28;20102;-46
2022/08/17 10:57:30;;;;;;;4.35;3.95;;;23.60;57.20;;;26.30;41.41;97305.63;4985095;28;20249;-43
2022/08/17 11:00:14;;;;;;;4.80;4.25;;;23.50;57.20;;;26.28;41.72;97295.00;5020080;28;20073;-43
2022/08/17 11:02:56;;;;;;;4.50;4.10;;;23.40;58.50;;;26.26;42.30;97293.63;5027069;28;20061;-42
2022/08/17 11:06:03;;;;;;;5.45;4.78;;;23.40;58.90;;;26.29;42.61;97291.19;5026102;28;20355;-45
2022/08/17 11:08:57;;;;;;;6.57;5.15;;;23.40;63.10;;;26.39;43.95;97287.66;5026664;28;20051;-43
2022/08/17 11:11:44;;;;;;;5.38;4.47;;;23.50;64.70;;;26.40;43.48;97288.47;5025427;28;20617;-43
2022/08/17 11:14:50;;;;;;;4.82;4.32;;;23.50;63.10;;;26.34;43.94;97320.38;5026508;28;20229;-42
2022/08/17 11:18:06;;;;;;;5.03;4.55;;;23.50;63.50;;;26.17;44.45;97314.34;5024853;28;20099;-42
2022/08/17 11:21:30;;;;;;;4.80;4.30;;;23.20;65.30;;;26.08;43.74;97327.72;5027094;28;20250;-42
2022/08/17 11:24:15;;;;;;;5.18;4.53;;;23.10;63.90;;;25.94;45.04;97316.50;5026511;28;20068;-44
2022/08/17 11:27:02;;;;;;;5.80;5.20;;;23.00;67.20;;;25.96;45.45;97308.84;5026755;28;20049;-42
2022/08/17 11:30:00;;;;;;;6.20;5.60;;;23.00;67.20;;;25.96;45.42;97308.84;5027461;28;20057;-43
2022/08/17 11:32:48;;;;;;;5.82;5.25;;;23.00;67.50;;;26.05;45.67;97303.69;5025450;28;20053;-43
2022/08/17 11:35:29;;;;;;;6.80;5.00;;;23.10;67.00;;;26.11;45.83;97298.00;5025964;28;20068;-48
2022/08/17 11:38:15;;;;;;;5.85;5.30;;;23.10;67.00;;;26.21;46.21;97297.19;5008521;28;20050;-44